Time;durP1;ratioP1;P1;durP2;ratioP2;P2;SDS_P1;SDS_P2;PMS_P1;PMS_P2;Temp;Humidity;BMP_temperature;BMP_pressure;BME280_temperature;BME280_humidity;BME280_pressure;Samples;Min_cycle;Max_cycle;Signal;HPM_P1;HPM_P2
2022/09/11 00:01:13;;;;;;;2.62;1.70;;;18.40;99.90;;;;;;946978;147;27351;-78
2022/09/11 00:03:39;;;;;;;1.80;1.70;;;18.40;99.90;;;;;;944833;147;27428;-79
2022/09/11 00:06:06;;;;;;;1.92;1.82;;;18.40;99.90;;;;;;945502;147;27472;-78
2022/09/11 00:08:33;;;;;;;1.72;1.62;;;18.40;99.90;;;;;;942077;147;27395;-78
2022/09/11 00:11:08;;;;;;;1.50;1.40;;;18.40;99.90;;;;;;943124;147;27273;-78
2022/09/11 00:13:35;;;;;;;1.70;1.60;;;18.40;99.90;;;;;;944807;147;27437;-77
2022/09/11 00:16:02;;;;;;;1.52;1.42;;;18.40;99.90;;;;;;943125;147;27314;-77
2022/09/11 00:18:28;;;;;;;2.67;1.82;;;18.40;99.90;;;;;;944425;147;27482;-77
2022/09/11 00:20:54;;;;;;;1.70;1.60;;;18.40;99.90;;;;;;945924;147;27656;-78
2022/09/11 00:23:21;;;;;;;2.15;2.00;;;18.40;99.90;;;;;;944753;148;27445;-77
2022/09/11 00:25:48;;;;;;;2.12;1.92;;;18.40;99.90;;;;;;943774;147;27355;-77
2022/09/11 00:28:18;;;;;;;2.00;1.90;;;18.40;99.90;;;;;;944447;147;27437;-78
2022/09/11 00:30:43;;;;;;;2.22;2.08;;;18.40;99.90;;;;;;945921;147;27504;-78
2022/09/11 00:33:11;;;;;;;2.35;2.15;;;18.40;99.90;;;;;;945273;147;27367;-77
2022/09/11 00:35:37;;;;;;;2.30;2.20;;;18.40;99.90;;;;;;943866;147;27888;-77
2022/09/11 00:38:03;;;;;;;2.47;2.27;;;18.40;99.90;;;;;;946804;147;27343;-77
2022/09/11 00:40:30;;;;;;;2.42;2.27;;;18.40;99.90;;;;;;944268;147;27343;-78
2022/09/11 00:42:57;;;;;;;2.77;2.58;;;18.40;99.90;;;;;;945466;147;27461;-77
2022/09/11 00:45:24;;;;;;;3.15;2.55;;;18.40;99.90;;;;;;944020;147;27498;-77
2022/09/11 00:47:50;;;;;;;3.55;2.55;;;18.50;99.90;;;;;;942973;147;27460;-77
2022/09/11 00:50:16;;;;;;;2.33;2.10;;;18.50;99.90;;;;;;945224;147;27299;-78
2022/09/11 00:52:43;;;;;;;2.72;2.52;;;18.50;99.90;;;;;;945811;147;27391;-77
2022/09/11 00:55:09;;;;;;;2.85;2.55;;;18.50;99.90;;;;;;942129;147;27457;-78
2022/09/11 00:57:37;;;;;;;4.17;2.50;;;18.50;99.90;;;;;;942780;147;27475;-77
2022/09/11 01:00:02;;;;;;;3.00;2.80;;;18.50;99.90;;;;;;943073;147;27387;-77
2022/09/11 01:02:29;;;;;;;2.90;2.70;;;18.50;99.90;;;;;;938263;148;27931;-77
2022/09/11 01:04:56;;;;;;;3.10;2.90;;;18.50;99.90;;;;;;941405;148;27401;-77
2022/09/11 01:07:22;;;;;;;3.60;3.22;;;18.50;99.90;;;;;;941761;148;27347;-77
2022/09/11 01:09:50;;;;;;;3.40;3.10;;;18.50;99.90;;;;;;939952;148;27465;-77
2022/09/11 01:12:22;;;;;;;3.42;3.12;;;18.60;99.90;;;;;;940460;148;27937;-77
2022/09/11 01:15:08;;;;;;;3.42;3.22;;;18.60;99.90;;;;;;938838;148;27301;-77
2022/09/11 01:17:47;;;;;;;3.55;3.25;;;18.60;99.90;;;;;;938119;148;27371;-77
2022/09/11 01:20:42;;;;;;;3.98;3.67;;;18.60;99.90;;;;;;938480;148;27394;-77
2022/09/11 01:23:29;;;;;;;3.95;3.60;;;18.60;99.90;;;;;;940017;148;27456;-78
2022/09/11 01:26:04;;;;;;;4.15;3.85;;;18.60;99.90;;;;;;937065;148;27312;-78
2022/09/11 01:28:37;;;;;;;4.03;3.62;;;18.60;99.90;;;;;;940387;148;27349;-78
2022/09/11 01:31:06;;;;;;;4.10;3.70;;;18.60;99.90;;;;;;925611;148;27385;-78
2022/09/11 01:33:42;;;;;;;4.70;4.30;;;18.60;99.90;;;;;;939821;148;27391;-78
2022/09/11 01:36:17;;;;;;;4.20;3.90;;;18.60;99.90;;;;;;937545;148;27435;-78
2022/09/11 01:38:52;;;;;;;4.10;3.77;;;18.60;99.90;;;;;;938154;148;27446;-78
2022/09/11 01:41:26;;;;;;;4.37;4.08;;;18.60;99.90;;;;;;940445;148;27372;-78
2022/09/11 01:43:51;;;;;;;4.50;4.10;;;18.60;99.90;;;;;;938524;148;27395;-78
2022/09/11 01:46:21;;;;;;;4.72;4.22;;;18.60;99.90;;;;;;938720;148;27386;-78
2022/09/11 01:48:44;;;;;;;4.53;4.20;;;18.60;99.90;;;;;;938054;148;27337;-78
2022/09/11 01:51:17;;;;;;;4.60;4.20;;;18.60;99.90;;;;;;940838;148;27453;-78
2022/09/11 01:53:43;;;;;;;4.62;4.10;;;18.60;99.90;;;;;;939362;148;27341;-78
2022/09/11 01:56:13;;;;;;;4.55;4.15;;;18.60;99.90;;;;;;939416;148;27459;-78
2022/09/11 01:58:39;;;;;;;4.12;3.83;;;18.60;99.90;;;;;;936959;148;28786;-77
2022/09/11 02:01:12;;;;;;;4.35;4.05;;;18.60;99.90;;;;;;937056;148;27391;-77
2022/09/11 02:03:44;;;;;;;4.40;4.03;;;18.60;99.90;;;;;;939376;148;27353;-77
2022/09/11 02:06:14;;;;;;;4.60;4.30;;;18.60;99.90;;;;;;939849;148;27462;-77
2022/09/11 02:08:44;;;;;;;5.25;4.25;;;18.60;99.90;;;;;;939190;148;28062;-78
2022/09/11 02:11:12;;;;;;;5.08;4.45;;;18.60;99.90;;;;;;939659;148;27326;-78
2022/09/11 02:13:57;;;;;;;4.75;4.45;;;18.60;99.90;;;;;;940033;148;27485;-78
2022/09/11 02:16:42;;;;;;;5.20;4.62;;;18.60;99.90;;;;;;938511;148;27359;-77
2022/09/11 02:19:09;;;;;;;5.42;4.92;;;18.60;99.90;;;;;;941291;148;27319;-77
2022/09/11 02:21:36;;;;;;;5.03;4.55;;;18.60;99.90;;;;;;940713;148;27943;-77
2022/09/11 02:24:02;;;;;;;5.33;4.92;;;18.50;99.90;;;;;;937778;148;27465;-78
2022/09/11 02:26:29;;;;;;;5.30;4.65;;;18.50;99.90;;;;;;938608;148;27333;-77
2022/09/11 02:28:55;;;;;;;5.15;4.75;;;18.50;99.90;;;;;;937742;148;27309;-77
2022/09/11 02:31:22;;;;;;;5.62;5.22;;;18.50;99.90;;;;;;939194;148;27440;-77
2022/09/11 02:33:48;;;;;;;5.95;5.45;;;18.50;99.90;;;;;;939711;148;27387;-77
2022/09/11 02:36:39;;;;;;;5.70;5.20;;;18.50;99.90;;;;;;939108;148;27388;-77
2022/09/11 02:39:27;;;;;;;5.45;4.60;;;18.50;99.90;;;;;;939033;148;27476;-77
2022/09/11 02:42:11;;;;;;;5.17;4.75;;;18.50;99.90;;;;;;939944;148;27420;-78
2022/09/11 02:44:43;;;;;;;5.65;5.25;;;18.40;99.90;;;;;;936546;148;27372;-77
2022/09/11 02:47:16;;;;;;;5.85;5.35;;;18.40;99.90;;;;;;940461;148;27449;-77
2022/09/11 02:50:00;;;;;;;5.53;5.12;;;18.40;99.90;;;;;;937430;148;27315;-77
2022/09/11 02:52:41;;;;;;;5.85;5.00;;;18.30;99.90;;;;;;920587;148;27363;-77
2022/09/11 02:55:13;;;;;;;5.22;4.85;;;18.30;99.90;;;;;;936891;148;27379;-79
2022/09/11 02:57:49;;;;;;;6.35;5.70;;;18.30;99.90;;;;;;937581;148;27379;-79
2022/09/11 03:00:15;;;;;;;5.78;5.35;;;18.30;99.90;;;;;;937477;148;27490;-79
2022/09/11 03:02:42;;;;;;;6.00;5.50;;;18.20;99.90;;;;;;935223;149;27294;-79
2022/09/11 03:05:09;;;;;;;6.42;5.92;;;18.20;99.90;;;;;;935235;148;27349;-79
2022/09/11 03:07:35;;;;;;;6.35;5.85;;;18.20;99.90;;;;;;933951;148;27398;-79
2022/09/11 03:10:02;;;;;;;6.72;6.22;;;18.20;99.90;;;;;;933709;148;27392;-79
2022/09/11 03:12:28;;;;;;;6.20;5.70;;;18.20;99.90;;;;;;934800;149;27434;-79
2022/09/11 03:14:56;;;;;;;6.03;5.47;;;18.20;99.90;;;;;;932757;149;27420;-79
2022/09/11 03:17:21;;;;;;;6.35;5.75;;;18.10;99.90;;;;;;934109;148;27740;-79
2022/09/11 03:19:48;;;;;;;6.53;5.95;;;18.20;99.90;;;;;;933249;149;27441;-79
2022/09/11 03:22:15;;;;;;;7.87;6.45;;;18.10;99.90;;;;;;932296;149;27397;-79
2022/09/11 03:24:41;;;;;;;6.72;6.22;;;18.10;99.90;;;;;;934468;148;27343;-79
2022/09/11 03:27:08;;;;;;;7.62;6.92;;;18.10;99.90;;;;;;934052;149;27349;-79
2022/09/11 03:29:34;;;;;;;6.85;6.35;;;18.20;99.90;;;;;;932262;149;27825;-79
2022/09/11 03:32:01;;;;;;;7.58;6.92;;;18.10;99.90;;;;;;932123;148;27405;-79
2022/09/11 03:34:28;;;;;;;7.90;7.05;;;18.10;99.90;;;;;;934670;149;27390;-79
2022/09/11 03:36:54;;;;;;;7.30;6.70;;;18.10;99.90;;;;;;934475;148;27448;-79
2022/09/11 03:39:21;;;;;;;7.42;6.83;;;18.10;99.90;;;;;;932405;149;27349;-79
2022/09/11 03:41:47;;;;;;;7.67;7.08;;;18.10;99.90;;;;;;934908;149;27443;-79
2022/09/11 03:44:14;;;;;;;7.78;7.17;;;18.20;99.90;;;;;;933352;148;27415;-79
2022/09/11 03:46:41;;;;;;;7.10;6.50;;;18.20;99.90;;;;;;933351;149;27453;-79
2022/09/11 03:49:08;;;;;;;7.70;7.00;;;18.20;99.90;;;;;;934013;149;27396;-79
2022/09/11 03:51:34;;;;;;;6.90;6.40;;;18.20;99.90;;;;;;934679;148;27437;-79
2022/09/11 03:54:00;;;;;;;8.80;8.00;;;18.20;99.90;;;;;;937384;149;27701;-79
2022/09/11 03:56:30;;;;;;;7.78;7.08;;;18.20;99.90;;;;;;935042;149;27402;-79
2022/09/11 03:58:56;;;;;;;7.72;7.03;;;18.20;99.90;;;;;;931511;149;27499;-79
2022/09/11 04:01:23;;;;;;;7.95;7.28;;;18.20;99.90;;;;;;934666;149;28705;-79
2022/09/11 04:03:49;;;;;;;7.95;7.25;;;18.20;99.90;;;;;;933484;149;27326;-79
2022/09/11 04:06:16;;;;;;;7.78;7.15;;;18.20;99.90;;;;;;933959;148;27306;-79
2022/09/11 04:08:43;;;;;;;8.58;7.78;;;18.20;99.90;;;;;;932604;149;27348;-79
2022/09/11 04:11:10;;;;;;;8.18;7.50;;;18.20;99.90;;;;;;934912;149;27401;-79
2022/09/11 04:13:36;;;;;;;8.55;7.85;;;18.20;99.90;;;;;;934496;148;27352;-79
2022/09/11 04:16:05;;;;;;;8.45;7.70;;;18.20;99.90;;;;;;933883;149;27373;-79
2022/09/11 04:18:32;;;;;;;7.95;7.35;;;18.20;99.90;;;;;;934541;149;27383;-79
2022/09/11 04:20:58;;;;;;;7.97;7.20;;;18.10;99.90;;;;;;936211;148;27341;-79
2022/09/11 04:23:25;;;;;;;8.03;7.33;;;18.10;99.90;;;;;;932317;148;27384;-79
2022/09/11 04:25:52;;;;;;;8.43;7.53;;;18.10;99.90;;;;;;934876;148;27408;-79
2022/09/11 04:28:18;;;;;;;8.80;8.00;;;18.10;99.90;;;;;;934042;149;27363;-79
2022/09/11 04:30:45;;;;;;;8.98;8.28;;;18.10;99.90;;;;;;933679;148;27328;-79
2022/09/11 04:33:11;;;;;;;7.30;6.72;;;18.10;99.90;;;;;;933654;148;27354;-79
2022/09/11 04:35:38;;;;;;;7.45;6.85;;;18.00;99.90;;;;;;933834;148;27302;-79
2022/09/11 04:38:05;;;;;;;8.00;7.30;;;18.10;99.90;;;;;;933392;149;27444;-79
2022/09/11 04:40:31;;;;;;;8.35;7.62;;;18.00;99.90;;;;;;935744;148;27530;-79
2022/09/11 04:42:58;;;;;;;8.10;7.47;;;18.00;99.90;;;;;;934747;149;27296;-79
2022/09/11 04:45:24;;;;;;;8.33;7.62;;;18.00;99.90;;;;;;934177;149;27461;-79
2022/09/11 04:47:51;;;;;;;8.88;8.18;;;18.00;99.90;;;;;;935352;148;27430;-79
2022/09/11 04:50:18;;;;;;;8.83;8.03;;;17.90;99.90;;;;;;934320;149;27375;-79
2022/09/11 04:52:44;;;;;;;8.48;7.78;;;17.90;99.90;;;;;;934252;149;27450;-79
2022/09/11 04:55:11;;;;;;;8.23;7.55;;;17.90;99.90;;;;;;933703;149;27377;-79
2022/09/11 04:57:37;;;;;;;7.92;7.30;;;17.90;99.90;;;;;;932293;149;27505;-79
2022/09/11 05:00:04;;;;;;;8.05;7.45;;;17.90;99.90;;;;;;933142;148;27419;-79
2022/09/11 05:02:31;;;;;;;9.18;8.23;;;17.80;99.90;;;;;;937441;147;27473;-79
2022/09/11 05:04:57;;;;;;;8.63;7.92;;;17.80;99.90;;;;;;940090;150;27481;-79
2022/09/11 05:07:24;;;;;;;9.25;8.48;;;17.70;99.90;;;;;;941658;147;27811;-79
2022/09/11 05:09:53;;;;;;;8.55;7.75;;;17.70;99.90;;;;;;942578;147;27416;-79
2022/09/11 05:12:17;;;;;;;8.80;8.05;;;17.70;99.90;;;;;;941342;150;27337;-79
2022/09/11 05:14:43;;;;;;;9.05;8.25;;;17.60;99.90;;;;;;942270;147;27366;-79
2022/09/11 05:17:12;;;;;;;9.38;8.33;;;17.60;99.90;;;;;;941199;148;27355;-79
2022/09/11 05:19:37;;;;;;;9.43;8.70;;;17.50;99.90;;;;;;939186;147;27387;-79
2022/09/11 05:22:03;;;;;;;12.28;9.13;;;17.50;99.90;;;;;;940626;148;27320;-79
2022/09/11 05:24:30;;;;;;;9.93;8.93;;;17.50;99.90;;;;;;942263;150;27278;-79
2022/09/11 05:27:00;;;;;;;8.48;7.78;;;17.50;99.90;;;;;;941803;150;27420;-79
2022/09/11 05:29:25;;;;;;;9.35;8.38;;;17.50;99.90;;;;;;942970;150;27470;-79
2022/09/11 05:31:51;;;;;;;9.78;8.88;;;17.40;99.90;;;;;;941417;150;27362;-79
2022/09/11 05:34:16;;;;;;;8.58;7.87;;;17.50;99.90;;;;;;941395;148;27421;-79
2022/09/11 05:36:44;;;;;;;9.03;8.23;;;17.60;99.90;;;;;;940871;150;27447;-79
2022/09/11 05:39:09;;;;;;;9.63;8.70;;;17.60;99.90;;;;;;942623;149;27414;-79
2022/09/11 05:41:36;;;;;;;8.58;7.92;;;17.80;99.90;;;;;;942445;150;27419;-79
2022/09/11 05:44:03;;;;;;;9.13;8.33;;;18.00;99.90;;;;;;941101;150;27379;-79
2022/09/11 05:46:29;;;;;;;9.53;8.58;;;18.20;99.90;;;;;;942355;148;27504;-79
2022/09/11 05:48:56;;;;;;;8.83;8.13;;;18.50;99.90;;;;;;941141;147;27302;-79
2022/09/11 05:51:22;;;;;;;8.60;7.87;;;18.70;99.90;;;;;;942994;150;27307;-79
2022/09/11 05:53:52;;;;;;;9.25;8.55;;;19.00;99.90;;;;;;940944;149;27312;-79
2022/09/11 05:56:18;;;;;;;9.55;8.55;;;19.30;99.90;;;;;;941400;150;27341;-79
2022/09/11 05:58:45;;;;;;;9.25;8.45;;;19.50;99.90;;;;;;940348;150;27396;-79
2022/09/11 06:01:12;;;;;;;9.35;8.55;;;19.60;99.90;;;;;;941693;150;27336;-79
2022/09/11 06:03:38;;;;;;;8.98;8.10;;;19.90;99.90;;;;;;938398;148;27477;-79
2022/09/11 06:06:08;;;;;;;8.55;7.85;;;20.10;99.90;;;;;;939754;148;27530;-79
2022/09/11 06:08:34;;;;;;;8.30;7.70;;;20.40;99.90;;;;;;940301;148;27369;-80
2022/09/11 06:11:01;;;;;;;7.92;7.33;;;20.70;99.90;;;;;;939840;148;27388;-80
2022/09/11 06:13:30;;;;;;;8.33;7.50;;;21.10;99.90;;;;;;937463;148;27288;-79
2022/09/11 06:15:57;;;;;;;7.47;6.95;;;21.50;99.90;;;;;;941792;148;27423;-79
2022/09/11 06:18:23;;;;;;;7.58;7.00;;;21.80;99.90;;;;;;939622;148;27462;-80
2022/09/11 06:21:02;;;;;;;7.60;7.00;;;22.30;99.90;;;;;;941651;148;27384;-80
2022/09/11 06:23:28;;;;;;;6.53;6.00;;;22.60;99.90;;;;;;939169;148;27345;-79
2022/09/11 06:25:55;;;;;;;7.75;6.95;;;22.90;99.90;;;;;;941791;148;27344;-80
2022/09/11 06:28:22;;;;;;;7.50;6.90;;;23.10;98.10;;;;;;941506;148;27429;-80
2022/09/11 06:30:48;;;;;;;7.30;6.80;;;23.30;98.20;;;;;;940183;148;27720;-79
2022/09/11 06:33:15;;;;;;;6.85;6.35;;;23.50;97.10;;;;;;937895;148;27443;-79
2022/09/11 06:35:41;;;;;;;7.37;6.78;;;23.60;95.60;;;;;;938493;148;27404;-79
2022/09/11 06:38:08;;;;;;;6.97;6.47;;;23.70;94.70;;;;;;940736;148;27391;-79
2022/09/11 06:40:34;;;;;;;6.87;6.37;;;23.70;93.90;;;;;;942193;148;27377;-79
2022/09/11 06:43:01;;;;;;;6.97;6.47;;;23.80;93.70;;;;;;936706;148;27480;-79
2022/09/11 06:45:29;;;;;;;6.70;6.10;;;23.90;93.40;;;;;;939939;148;27383;-80
2022/09/11 06:47:54;;;;;;;7.45;6.83;;;24.00;93.90;;;;;;938707;148;27340;-80
2022/09/11 06:50:22;;;;;;;6.72;6.22;;;24.20;95.10;;;;;;940571;148;27396;-80
2022/09/11 06:52:47;;;;;;;6.30;5.80;;;24.60;95.90;;;;;;938401;148;27361;-80
2022/09/11 06:55:14;;;;;;;6.22;5.72;;;25.00;96.00;;;;;;937918;148;27442;-80
2022/09/11 06:57:40;;;;;;;6.08;5.62;;;25.50;96.00;;;;;;938235;148;27334;-80
2022/09/11 07:00:08;;;;;;;6.53;6.03;;;26.10;95.90;;;;;;940996;148;27811;-80
2022/09/11 07:02:34;;;;;;;5.53;5.12;;;26.80;94.70;;;;;;941627;148;27380;-80
2022/09/11 07:05:01;;;;;;;5.90;5.50;;;27.50;93.90;;;;;;939119;148;27364;-80
2022/09/11 07:07:27;;;;;;;6.25;5.75;;;28.20;92.30;;;;;;940685;148;28186;-80
2022/09/11 07:09:54;;;;;;;6.22;5.78;;;29.00;90.10;;;;;;940028;148;27406;-81
2022/09/11 07:12:22;;;;;;;5.60;5.10;;;29.70;86.40;;;;;;939461;148;27367;-80
2022/09/11 07:14:47;;;;;;;5.12;4.72;;;30.30;84.00;;;;;;939623;148;27460;-81
2022/09/11 07:17:13;;;;;;;5.70;5.30;;;31.00;82.30;;;;;;940980;148;28082;-80
2022/09/11 07:19:42;;;;;;;5.62;5.22;;;31.60;76.40;;;;;;939146;148;27411;-80
2022/09/11 07:22:07;;;;;;;5.42;4.92;;;32.00;72.70;;;;;;938798;148;27379;-81
2022/09/11 07:24:33;;;;;;;5.42;5.12;;;32.40;70.60;;;;;;938177;148;27408;-80
2022/09/11 07:27:00;;;;;;;5.70;5.30;;;32.60;68.60;;;;;;942334;148;27906;-80
2022/09/11 07:29:27;;;;;;;5.62;5.28;;;32.80;67.30;;;;;;937279;148;27388;-80
2022/09/11 07:31:56;;;;;;;5.55;5.20;;;33.00;66.70;;;;;;939303;148;27358;-80
2022/09/11 07:34:20;;;;;;;6.12;5.72;;;33.10;65.10;;;;;;940806;148;27301;-80
2022/09/11 07:36:50;;;;;;;6.50;6.08;;;33.20;64.10;;;;;;938212;148;27361;-80
2022/09/11 07:39:13;;;;;;;7.05;6.45;;;33.20;62.90;;;;;;940222;148;27798;-80
2022/09/11 07:41:39;;;;;;;7.33;6.72;;;33.20;61.60;;;;;;939941;148;27547;-81
2022/09/11 07:44:06;;;;;;;7.10;6.50;;;33.30;61.60;;;;;;941043;148;27737;-81
2022/09/11 07:46:33;;;;;;;6.78;6.28;;;33.30;61.50;;;;;;940364;148;27432;-81
2022/09/11 07:49:01;;;;;;;6.65;6.15;;;33.20;60.00;;;;;;940256;148;27417;-81
2022/09/11 07:51:26;;;;;;;6.97;6.37;;;33.20;58.60;;;;;;940820;148;27398;-80
2022/09/11 07:53:53;;;;;;;7.08;6.58;;;33.00;58.60;;;;;;941311;148;27883;-80
2022/09/11 07:56:25;;;;;;;7.30;6.70;;;32.80;58.20;;;;;;938665;148;27439;-80
2022/09/11 07:58:51;;;;;;;7.17;6.58;;;32.50;58.20;;;;;;938547;148;27320;-80
2022/09/11 08:01:18;;;;;;;7.10;6.60;;;32.20;58.30;;;;;;940380;148;27461;-80
2022/09/11 08:03:44;;;;;;;7.37;6.78;;;32.00;58.40;;;;;;941653;148;27500;-79
2022/09/11 08:06:17;;;;;;;7.92;7.33;;;31.70;58.40;;;;;;939594;148;27504;-80
2022/09/11 08:08:43;;;;;;;8.38;7.58;;;31.50;58.60;;;;;;941311;148;27411;-80
2022/09/11 08:11:13;;;;;;;7.28;6.78;;;31.30;59.10;;;;;;937199;148;27307;-80
2022/09/11 08:13:40;;;;;;;7.50;6.90;;;31.40;59.70;;;;;;938759;148;27439;-80
2022/09/11 08:16:06;;;;;;;7.87;7.28;;;31.50;59.90;;;;;;938705;148;27328;-80
2022/09/11 08:18:35;;;;;;;7.70;7.10;;;31.60;59.60;;;;;;939551;148;28121;-80
2022/09/11 08:21:07;;;;;;;7.42;6.92;;;31.80;59.20;;;;;;938730;148;27375;-80
2022/09/11 08:23:32;;;;;;;8.15;7.30;;;31.90;58.80;;;;;;938839;148;27332;-80
2022/09/11 08:26:13;;;;;;;8.65;7.95;;;32.00;57.90;;;;;;939381;148;27297;-80
2022/09/11 08:28:41;;;;;;;8.15;7.55;;;32.00;57.00;;;;;;940118;148;27364;-80
2022/09/11 08:31:06;;;;;;;8.23;7.47;;;31.80;56.60;;;;;;940748;148;27460;-80
2022/09/11 08:33:33;;;;;;;8.05;7.45;;;31.60;56.20;;;;;;938788;148;27331;-80
2022/09/11 08:35:59;;;;;;;8.33;7.72;;;31.40;56.40;;;;;;938447;148;27438;-79
2022/09/11 08:38:26;;;;;;;8.55;7.83;;;31.20;56.40;;;;;;938177;148;27320;-80
2022/09/11 08:40:53;;;;;;;8.35;7.65;;;31.00;56.40;;;;;;940671;148;27472;-79
2022/09/11 08:43:19;;;;;;;8.68;7.92;;;30.70;56.40;;;;;;940201;148;27354;-79
2022/09/11 08:45:46;;;;;;;9.13;8.30;;;30.50;56.20;;;;;;936815;148;27335;-80
2022/09/11 08:48:12;;;;;;;9.90;9.00;;;30.20;56.30;;;;;;939286;148;27415;-80
2022/09/11 08:50:39;;;;;;;9.05;8.23;;;30.00;56.10;;;;;;939867;148;27312;-80
2022/09/11 08:53:07;;;;;;;9.10;8.40;;;29.80;56.40;;;;;;937679;148;27740;-79
2022/09/11 08:55:32;;;;;;;9.43;8.63;;;29.50;56.60;;;;;;939014;148;27358;-80
2022/09/11 08:57:59;;;;;;;7.85;7.17;;;29.40;56.40;;;;;;938089;148;27472;-80
2022/09/11 09:00:40;;;;;;;7.47;6.87;;;29.30;57.50;;;;;;938251;148;27312;-79
2022/09/11 09:03:32;;;;;;;7.92;7.33;;;29.30;58.00;;;;;;933055;148;27428;-80
2022/09/11 09:06:16;;;;;;;8.18;7.50;;;29.40;58.30;;;;;;940047;148;27379;-80
2022/09/11 09:08:48;;;;;;;7.60;7.00;;;29.70;59.00;;;;;;938790;148;27578;-79
2022/09/11 09:11:37;;;;;;;7.90;7.30;;;30.00;59.20;;;;;;938189;148;27401;-79
2022/09/11 09:14:21;;;;;;;8.75;8.08;;;30.30;58.80;;;;;;938398;148;27445;-81
2022/09/11 09:16:51;;;;;;;7.65;7.05;;;30.50;58.10;;;;;;940332;148;27374;-81
2022/09/11 09:19:33;;;;;;;7.47;6.87;;;30.80;57.50;;;;;;939423;148;27475;-81
2022/09/11 09:21:59;;;;;;;7.95;7.35;;;30.90;56.70;;;;;;939555;148;27365;-81
2022/09/11 09:24:26;;;;;;;8.08;7.37;;;31.00;56.60;;;;;;941181;148;27409;-81
2022/09/11 09:26:52;;;;;;;8.13;7.53;;;31.20;57.10;;;;;;940653;148;27389;-82
2022/09/11 09:29:19;;;;;;;7.12;6.62;;;31.40;57.10;;;;;;938421;148;28712;-81
2022/09/11 09:31:45;;;;;;;8.40;7.60;;;31.60;56.70;;;;;;940070;148;27437;-80
2022/09/11 09:34:18;;;;;;;6.85;6.25;;;32.00;56.10;;;;;;938410;148;27310;-81
2022/09/11 09:37:06;;;;;;;8.10;7.40;;;32.10;55.90;;;;;;938024;148;27345;-80
2022/09/11 09:39:32;;;;;;;7.35;6.75;;;32.20;54.70;;;;;;937957;148;27343;-81
2022/09/11 09:42:16;;;;;;;7.95;7.35;;;32.30;53.90;;;;;;939272;148;28766;-81
2022/09/11 09:45:10;;;;;;;7.00;6.40;;;32.20;53.30;;;;;;904256;154;27335;-81
2022/09/11 09:47:36;;;;;;;7.37;6.87;;;32.00;53.20;;;;;;936447;148;27300;-80
2022/09/11 09:50:03;;;;;;;7.72;7.20;;;31.70;52.90;;;;;;939277;148;27373;-80
2022/09/11 09:52:32;;;;;;;7.90;7.20;;;31.40;52.40;;;;;;939652;148;27368;-80
2022/09/11 09:54:59;;;;;;;8.93;8.20;;;31.00;52.50;;;;;;937152;148;27421;-80
2022/09/11 09:57:26;;;;;;;8.60;7.90;;;30.60;52.50;;;;;;939513;148;27894;-80
2022/09/11 09:59:55;;;;;;;8.53;7.87;;;30.20;52.80;;;;;;939823;148;27425;-80
2022/09/11 10:02:44;;;;;;;8.48;7.70;;;29.80;53.10;;;;;;939535;148;27382;-80
2022/09/11 10:05:15;;;;;;;8.60;7.80;;;29.50;53.30;;;;;;937597;148;27405;-80
2022/09/11 10:07:52;;;;;;;8.38;7.62;;;29.10;53.40;;;;;;934362;148;27348;-80
2022/09/11 10:10:21;;;;;;;7.50;6.90;;;28.70;53.70;;;;;;932992;148;27299;-80
2022/09/11 10:12:47;;;;;;;7.62;6.92;;;28.40;54.20;;;;;;934142;149;27383;-80
2022/09/11 10:15:17;;;;;;;7.97;7.20;;;28.20;54.60;;;;;;934692;148;27417;-80
2022/09/11 10:17:43;;;;;;;7.87;7.28;;;28.00;55.00;;;;;;931823;149;27385;-80
2022/09/11 10:20:18;;;;;;;7.97;7.28;;;27.80;55.40;;;;;;932649;148;27400;-81
2022/09/11 10:22:45;;;;;;;8.75;7.95;;;27.80;55.90;;;;;;934695;149;27426;-81
2022/09/11 10:25:20;;;;;;;7.65;7.05;;;27.70;56.10;;;;;;936743;148;27324;-80
2022/09/11 10:27:55;;;;;;;8.10;6.58;;;27.70;56.30;;;;;;936619;149;27365;-80
2022/09/11 10:30:37;;;;;;;6.80;6.30;;;27.70;56.40;;;;;;935017;148;27475;-80
2022/09/11 10:33:06;;;;;;;7.72;7.03;;;27.80;56.70;;;;;;932557;148;27788;-80
2022/09/11 10:35:33;;;;;;;7.40;6.80;;;27.80;56.50;;;;;;926516;149;27464;-80
2022/09/11 10:38:00;;;;;;;8.10;7.40;;;27.80;56.40;;;;;;934392;148;27464;-80
2022/09/11 10:40:26;;;;;;;7.95;7.35;;;27.80;56.40;;;;;;933525;148;27476;-80
2022/09/11 10:42:53;;;;;;;8.25;7.45;;;27.80;56.40;;;;;;935126;149;28164;-80
2022/09/11 10:45:20;;;;;;;8.33;7.62;;;27.80;56.30;;;;;;932819;149;27450;-80
2022/09/11 10:47:47;;;;;;;7.75;7.10;;;27.70;56.30;;;;;;934794;149;27400;-80
2022/09/11 10:50:21;;;;;;;8.50;7.70;;;27.70;56.50;;;;;;935367;148;27308;-80
2022/09/11 10:52:57;;;;;;;8.30;7.60;;;27.60;56.40;;;;;;931720;149;27473;-81
2022/09/11 10:55:23;;;;;;;8.78;7.97;;;27.50;56.60;;;;;;933163;149;27410;-81
2022/09/11 10:57:53;;;;;;;9.43;7.42;;;27.40;56.60;;;;;;933984;149;27424;-81
2022/09/11 11:00:25;;;;;;;8.70;7.80;;;27.30;56.90;;;;;;933789;148;27474;-81
2022/09/11 11:02:58;;;;;;;8.73;8.03;;;27.20;57.20;;;;;;935233;149;28098;-80
2022/09/11 11:05:25;;;;;;;8.28;7.47;;;27.20;57.10;;;;;;934637;149;27300;-81
2022/09/11 11:08:10;;;;;;;8.40;7.70;;;27.10;57.10;;;;;;933667;148;27483;-80
2022/09/11 11:10:44;;;;;;;8.68;7.87;;;27.10;57.20;;;;;;932504;148;27385;-82
2022/09/11 11:13:45;;;;;;;7.42;6.83;;;27.10;57.10;;;;;;933382;148;27369;-81
2022/09/11 11:16:33;;;;;;;7.62;6.92;;;27.10;57.30;;;;;;935345;148;27906;-79
2022/09/11 11:19:20;;;;;;;7.47;6.78;;;27.00;57.20;;;;;;933044;148;27477;-80
2022/09/11 11:22:05;;;;;;;8.68;7.92;;;27.00;57.30;;;;;;933013;148;27340;-81
2022/09/11 11:24:37;;;;;;;7.60;7.00;;;27.00;57.00;;;;;;933188;148;27360;-81
2022/09/11 11:27:07;;;;;;;8.18;7.47;;;27.00;57.10;;;;;;933875;149;27746;-81
2022/09/11 11:30:10;;;;;;;6.78;6.17;;;26.90;57.20;;;;;;934050;148;27386;-80
2022/09/11 11:32:40;;;;;;;6.35;5.80;;;26.90;57.20;;;;;;933230;149;27348;-81
2022/09/11 11:35:25;;;;;;;6.95;6.35;;;27.00;57.10;;;;;;934155;148;27366;-81
2022/09/11 11:37:51;;;;;;;6.35;5.80;;;27.00;57.00;;;;;;934474;148;27390;-81
2022/09/11 11:40:24;;;;;;;6.40;5.80;;;27.00;56.90;;;;;;922113;148;27548;-81
2022/09/11 11:43:06;;;;;;;6.20;5.62;;;27.10;56.60;;;;;;933875;149;27394;-80
2022/09/11 11:45:43;;;;;;;5.87;5.33;;;27.20;56.80;;;;;;933435;147;27378;-81
2022/09/11 11:48:13;;;;;;;6.45;5.95;;;27.30;57.10;;;;;;932925;149;27380;-81
2022/09/11 11:50:42;;;;;;;6.78;6.25;;;27.40;57.00;;;;;;931885;148;27412;-81
2022/09/11 11:53:12;;;;;;;6.85;6.28;;;27.50;56.60;;;;;;917763;152;27348;-80
2022/09/11 11:55:57;;;;;;;6.50;5.90;;;27.70;56.70;;;;;;942424;147;27503;-81
2022/09/11 11:58:42;;;;;;;6.28;5.70;;;27.80;56.50;;;;;;932621;149;27479;-81
2022/09/11 12:01:26;;;;;;;6.67;6.12;;;27.90;56.20;;;;;;931707;149;27809;-81
2022/09/11 12:03:53;;;;;;;6.67;6.08;;;28.00;55.90;;;;;;934644;149;27370;-81
2022/09/11 12:06:20;;;;;;;7.53;6.83;;;28.10;55.60;;;;;;932088;149;27446;-81
2022/09/11 12:08:46;;;;;;;6.45;5.95;;;28.10;55.30;;;;;;935675;149;27333;-81
2022/09/11 12:11:12;;;;;;;5.65;5.15;;;28.10;55.10;;;;;;938838;148;27380;-81
2022/09/11 12:13:45;;;;;;;6.58;5.97;;;28.10;55.30;;;;;;939418;151;27372;-81
2022/09/11 12:16:18;;;;;;;6.85;6.00;;;28.10;55.00;;;;;;938088;148;27316;-81
2022/09/11 12:19:06;;;;;;;7.22;6.62;;;28.10;55.00;;;;;;932915;152;27332;-81
2022/09/11 12:21:31;;;;;;;6.08;5.53;;;28.20;55.00;;;;;;939939;150;27388;-80
2022/09/11 12:23:58;;;;;;;5.70;5.30;;;28.20;54.90;;;;;;946738;149;27371;-81
2022/09/11 12:26:25;;;;;;;6.10;5.55;;;28.20;54.70;;;;;;925087;150;27310;-81
2022/09/11 12:29:13;;;;;;;6.35;5.75;;;28.20;54.60;;;;;;945482;150;27339;-81
2022/09/11 12:31:51;;;;;;;7.28;6.25;;;28.10;54.60;;;;;;945719;147;28118;-80
2022/09/11 12:34:18;;;;;;;6.97;6.35;;;28.10;54.80;;;;;;945771;150;27367;-81
2022/09/11 12:36:50;;;;;;;7.40;6.70;;;28.00;54.70;;;;;;948146;148;27828;-81
2022/09/11 12:39:51;;;;;;;7.95;6.45;;;27.90;54.80;;;;;;923035;153;27351;-81
2022/09/11 12:42:23;;;;;;;7.45;6.87;;;27.80;54.80;;;;;;948116;150;27395;-81
2022/09/11 12:44:49;;;;;;;7.33;6.72;;;27.70;54.90;;;;;;923430;150;27365;-80
2022/09/11 12:47:24;;;;;;;7.72;7.08;;;27.50;55.00;;;;;;948851;150;27308;-81
2022/09/11 12:49:51;;;;;;;6.80;6.10;;;27.40;55.10;;;;;;923874;153;27383;-81
2022/09/11 12:52:18;;;;;;;7.42;6.55;;;27.30;55.30;;;;;;946902;150;27357;-81
2022/09/11 12:54:47;;;;;;;7.17;6.58;;;27.20;55.40;;;;;;931548;149;27783;-80
2022/09/11 12:57:18;;;;;;;5.97;5.47;;;27.10;55.40;;;;;;947258;149;27329;-80
2022/09/11 12:59:43;;;;;;;5.80;5.25;;;27.10;55.40;;;;;;921753;150;27447;-80
2022/09/11 13:02:28;;;;;;;6.00;5.40;;;27.00;55.40;;;;;;946527;148;27371;-80